CheckWX is a tool to help pilots better visualize weather data.  It is not intended as a substitute for an official pre-flight weather briefing.

08:31:16 UTC

KSGT METAR
Stuttgart Municipal Carl Humphrey Field Airport
Stuttgart, Arkansas, USA
Current

35 mins ago

KSGT 230756Z AUTO 21006KT 10SM CLR 16/12 A3007 RMK AO2 SLP181 T01560122
Observed
Apr-23 @ 07:56 UTC
Wind
  • 210° at 6 KTS
Visibility
10 SM
Flight Rules
VFR
Cloud Levels
  • Clear skies
Temperature
16°C / 61°F
Dewpoint
12°C / 54°F
Humidity
77%
Altimeter
30.07" Hg
Pressure
1018.32 hPa
Previous

2 hours ago

KSGT 230656Z AUTO 20006KT 10SM CLR 17/12 A3007 RMK AO2 SLP182 T01670117
Observed
Apr-23 @ 06:56 UTC
Wind
  • 200° at 6 KTS
Visibility
10 SM
Flight Rules
VFR
Cloud Levels
  • Clear skies
Temperature
17°C / 63°F
Dewpoint
12°C / 54°F
Humidity
73%
Altimeter
30.07" Hg
Pressure
1018.32 hPa
Previous

3 hours ago

KSGT 230556Z AUTO 18006KT 10SM CLR 18/11 A3007 RMK AO2 SLP182 60001 T01830111 10250 20172 402720139 58002
Observed
Apr-23 @ 05:56 UTC
Wind
  • 180° at 6 KTS
Visibility
10 SM
Flight Rules
VFR
Cloud Levels
  • Clear skies
Temperature
18°C / 64°F
Dewpoint
11°C / 52°F
Humidity
64%
Altimeter
30.07" Hg
Pressure
1018.32 hPa